Time;durP1;ratioP1;P1;durP2;ratioP2;P2;SDS_P1;SDS_P2;PMS_P1;PMS_P2;Temp;Humidity;BMP_temperature;BMP_pressure;BME280_temperature;BME280_humidity;BME280_pressure;Samples;Min_cycle;Max_cycle;Signal;HPM_P1;HPM_P2
2023/12/30 06:45:04;;;;;;;7.72;1.88;;;;;;;;;;10501278;28;20403;-84
2023/12/30 06:50:34;;;;;;;4.65;1.55;;;;;;;;;;10563179;28;20038;-84
2023/12/30 06:55:35;;;;;;;6.65;1.25;;;;;;;;;;10612018;22;20044;-84
2023/12/30 07:00:36;;;;;;;2.55;1.30;;;;;;;;;;10582408;28;20496;-84
2023/12/30 07:05:38;;;;;;;;;;;;;;;;;;10558154;28;20084;-84
2023/12/30 07:10:56;;;;;;;3.83;1.45;;;;;;;;;;10537365;28;19908;-86
2023/12/30 07:16:01;;;;;;;5.47;1.58;;;;;;;;;;10522565;28;20056;-86
2023/12/30 07:21:02;;;;;;;6.95;1.73;;;;;;;;;;10535398;28;20028;-86
2023/12/30 07:26:03;;;;;;;6.13;1.80;;;;;;;;;;10540767;28;20063;-85
2023/12/30 07:31:19;;;;;;;;;;;;;;;;;;10551533;28;20104;-85
2023/12/30 07:36:27;;;;;;;3.97;1.60;;;;;;;;;;10557357;28;19958;-84
2023/12/30 07:41:29;;;;;;;5.28;1.58;;;;;;;;;;10578708;28;20044;-83
2023/12/30 07:46:32;;;;;;;6.03;1.70;;;;;;;;;;10544424;28;20380;-84
2023/12/30 07:51:38;;;;;;;8.63;2.70;;;;;;;;;;10537577;28;20025;-83
2023/12/30 07:56:39;;;;;;;5.00;2.20;;;;;;;;;;10512220;28;20055;-84
2023/12/30 08:01:48;;;;;;;5.47;2.25;;;;;;;;;;10514438;28;20048;-86
2023/12/30 08:06:49;;;;;;;5.40;1.90;;;;;;;;;;10506893;28;20111;-86
2023/12/30 08:11:50;;;;;;;5.50;1.85;;;;;;;;;;10504812;28;20029;-84
2023/12/30 08:16:51;;;;;;;;;;;;;;;;;;10505845;28;20480;-86
2023/12/30 08:21:52;;;;;;;8.15;2.38;;;;;;;;;;10507942;28;19916;-81
2023/12/30 08:26:53;;;;;;;;;;;;;;;;;;10511746;28;20032;-81
2023/12/30 08:31:54;;;;;;;7.15;2.85;;;;;;;;;;10509399;28;19911;-82
2023/12/30 08:36:55;;;;;;;;;;;;;;;;;;10512382;28;20032;-83
2023/12/30 08:41:56;;;;;;;5.25;2.20;;;;;;;;;;10522785;28;20010;-82
2023/12/30 08:46:57;;;;;;;;;;;;;;;;;;10536524;28;20116;-81
2023/12/30 08:51:58;;;;;;;5.47;2.05;;;;;;;;;;10509003;28;19908;-83
2023/12/30 08:57:00;;;;;;;5.03;2.05;;;;;;;;;;10510796;28;20051;-83
2023/12/30 09:02:01;;;;;;;8.60;2.20;;;;;;;;;;10512242;28;20029;-83
2023/12/30 09:07:02;;;;;;;;;;;;;;;;;;10509620;28;20024;-83
2023/12/30 09:12:03;;;;;;;7.93;2.20;;;;;;;;;;10510034;28;20414;-83
2023/12/30 09:17:04;;;;;;;9.18;2.53;;;;;;;;;;10511407;28;20075;-84
2023/12/30 09:22:07;;;;;;;;;;;;;;;;;;10511949;28;20031;-82
2023/12/30 09:27:08;;;;;;;5.72;2.17;;;;;;;;;;10511417;28;19931;-83
2023/12/30 09:32:11;;;;;;;;;;;;;;;;;;10510499;28;20027;-83
2023/12/30 09:37:14;;;;;;;7.22;2.30;;;;;;;;;;10508927;28;19908;-84
2023/12/30 09:42:16;;;;;;;8.70;4.07;;;;;;;;;;10507443;28;20032;-82
2023/12/30 09:47:18;;;;;;;6.00;2.13;;;;;;;;;;10515881;28;20353;-83
2023/12/30 09:52:19;;;;;;;5.72;2.10;;;;;;;;;;10521147;28;20060;-81
2023/12/30 09:57:20;;;;;;;;;;;;;;;;;;10537615;28;20025;-81
2023/12/30 10:02:22;;;;;;;7.22;2.25;;;;;;;;;;10518945;28;19919;-81
2023/12/30 10:07:23;;;;;;;6.68;2.33;;;;;;;;;;10533198;28;20021;-81
2023/12/30 10:12:24;;;;;;;;;;;;;;;;;;10508153;28;20028;-83
2023/12/30 10:17:31;;;;;;;7.65;2.70;;;;;;;;;;10507141;28;19905;-84
2023/12/30 10:22:32;;;;;;;3.33;1.70;;;;;;;;;;10494011;28;20063;-83
2023/12/30 10:27:33;;;;;;;9.05;3.22;;;;;;;;;;10510062;28;20021;-83
2023/12/30 10:32:34;;;;;;;5.45;2.20;;;;;;;;;;10508959;28;20071;-81
2023/12/30 10:37:36;;;;;;;6.78;2.92;;;;;;;;;;10511796;28;20052;-82
2023/12/30 10:42:37;;;;;;;8.73;4.03;;;;;;;;;;10510429;28;20029;-82
2023/12/30 10:47:40;;;;;;;5.88;2.13;;;;;;;;;;10509804;28;20026;-82
2023/12/30 10:52:46;;;;;;;9.55;3.38;;;;;;;;;;10509641;28;20025;-85
2023/12/30 10:57:54;;;;;;;10.63;3.03;;;;;;;;;;10510541;28;20081;-86
2023/12/30 11:02:55;;;;;;;9.40;3.33;;;;;;;;;;10509034;28;20021;-82
2023/12/30 11:07:56;;;;;;;;;;;;;;;;;;10526389;28;20028;-82
2023/12/30 11:12:57;;;;;;;7.97;2.38;;;;;;;;;;10511103;28;19915;-85
2023/12/30 11:17:58;;;;;;;;;;;;;;;;;;10505992;28;20042;-85
2023/12/30 11:23:05;;;;;;;9.75;3.00;;;;;;;;;;10504998;28;19914;-83
2023/12/30 11:28:14;;;;;;;10.40;3.38;;;;;;;;;;10510663;28;20431;-83
2023/12/30 11:33:18;;;;;;;6.15;2.58;;;;;;;;;;10513138;28;20024;-85
2023/12/30 11:38:20;;;;;;;7.88;2.47;;;;;;;;;;10498536;28;20036;-84
2023/12/30 11:43:21;;;;;;;5.50;2.05;;;;;;;;;;10513623;28;20025;-83
2023/12/30 11:48:23;;;;;;;7.13;2.78;;;;;;;;;;10514060;28;20021;-84
2023/12/30 11:53:24;;;;;;;6.10;2.15;;;;;;;;;;10515130;28;20082;-84
2023/12/30 11:58:34;;;;;;;;;;;;;;;;;;10517195;28;20078;-85
2023/12/30 12:03:36;;;;;;;6.93;2.57;;;;;;;;;;10515060;28;19908;-87
2023/12/30 12:08:41;;;;;;;8.88;3.00;;;;;;;;;;10515590;28;20025;-85
2023/12/30 12:13:46;;;;;;;7.03;2.03;;;;;;;;;;10519964;28;20036;-85
2023/12/30 12:18:49;;;;;;;9.15;2.95;;;;;;;;;;10541591;28;20049;-84
2023/12/30 12:23:54;;;;;;;8.85;4.13;;;;;;;;;;10515836;28;20117;-84
2023/12/30 12:34:35;;;;;;;8.48;3.35;;;;;;;;;;10514844;28;20024;-84
2023/12/30 12:39:36;;;;;;;7.40;3.17;;;;;;;;;;10510823;28;20021;-85
2023/12/30 12:44:48;;;;;;;8.80;3.70;;;;;;;;;;10512898;28;20024;-85
2023/12/30 12:50:19;;;;;;;5.07;2.00;;;;;;;;;;10513208;28;20043;-85
2023/12/30 12:55:20;;;;;;;7.25;2.58;;;;;;;;;;10507031;28;20044;-85
2023/12/30 13:00:21;;;;;;;;;;;;;;;;;;10505347;28;20052;-89
2023/12/30 13:05:30;;;;;;;6.32;2.65;;;;;;;;;;10503628;28;19905;-87
2023/12/30 13:11:13;;;;;;;9.65;3.00;;;;;;;;;;10459220;28;20563;-85
2023/12/30 13:16:14;;;;;;;9.27;3.03;;;;;;;;;;10444173;28;20025;-86
2023/12/30 13:21:15;;;;;;;17.50;10.98;;;;;;;;;;10505920;28;20369;-81
2023/12/30 13:26:22;;;;;;;;;;;;;;;;;;10507667;28;20175;-88
2023/12/30 13:31:26;;;;;;;8.93;3.20;;;;;;;;;;10520305;28;19904;-87
2023/12/30 13:36:43;;;;;;;6.03;2.22;;;;;;;;;;10545843;28;20043;-86
2023/12/30 18:56:37;;;;;;;6.60;4.03;;;;;;;;;;10580815;22;20122;-85
2023/12/30 19:01:43;;;;;;;6.00;2.20;;;;;;;;;;10527773;28;20052;-85
2023/12/30 19:06:44;;;;;;;3.75;2.05;;;;;;;;;;10489126;28;20024;-85
2023/12/30 19:11:46;;;;;;;4.30;2.10;;;;;;;;;;10482718;28;20029;-85
2023/12/30 19:16:47;;;;;;;8.48;5.63;;;;;;;;;;10484035;28;20074;-86
2023/12/30 19:21:48;;;;;;;3.58;1.85;;;;;;;;;;10488244;28;20035;-86
2023/12/30 19:26:49;;;;;;;3.00;1.95;;;;;;;;;;10485308;28;20021;-86
2023/12/30 19:31:50;;;;;;;;;;;;;;;;;;10486428;28;20032;-85
2023/12/30 19:36:51;;;;;;;4.60;1.80;;;;;;;;;;10484483;28;19928;-85
2023/12/30 19:41:52;;;;;;;3.22;1.70;;;;;;;;;;10502126;28;20037;-85
2023/12/30 19:46:53;;;;;;;;;;;;;;;;;;10484439;28;20563;-85
2023/12/30 19:51:54;;;;;;;3.33;1.73;;;;;;;;;;10490797;28;19904;-85
2023/12/30 19:56:55;;;;;;;;;;;;;;;;;;10491685;28;20451;-85
2023/12/30 20:01:56;;;;;;;3.08;1.70;;;;;;;;;;10492750;28;19912;-85
2023/12/30 20:06:57;;;;;;;3.10;1.80;;;;;;;;;;10492409;28;20173;-85
